sensor_id;sensor_type;location;lat;lon;timestamp;temperature;humidity
33508;DHT22;25568;37.410;-122.096;2024-01-30T00:00:53;20.20;88.30
33508;DHT22;25568;37.410;-122.096;2024-01-30T00:03:22;20.20;88.10
33508;DHT22;25568;37.410;-122.096;2024-01-30T00:05:51;20.20;88.10
33508;DHT22;25568;37.410;-122.096;2024-01-30T00:08:20;20.30;87.90
33508;DHT22;25568;37.410;-122.096;2024-01-30T00:10:50;20.20;87.60
33508;DHT22;25568;37.410;-122.096;2024-01-30T00:13:20;20.30;86.80
33508;DHT22;25568;37.410;-122.096;2024-01-30T00:15:51;20.30;87.10
33508;DHT22;25568;37.410;-122.096;2024-01-30T00:18:20;20.30;86.90
33508;DHT22;25568;37.410;-122.096;2024-01-30T00:20:50;20.30;86.70
33508;DHT22;25568;37.410;-122.096;2024-01-30T00:23:20;20.30;87.30
33508;DHT22;25568;37.410;-122.096;2024-01-30T00:25:50;20.30;86.30
33508;DHT22;25568;37.410;-122.096;2024-01-30T00:28:19;20.30;86.10
33508;DHT22;25568;37.410;-122.096;2024-01-30T00:30:53;20.30;86.00
33508;DHT22;25568;37.410;-122.096;2024-01-30T00:33:24;20.30;85.80
33508;DHT22;25568;37.410;-122.096;2024-01-30T00:35:54;20.30;85.80
33508;DHT22;25568;37.410;-122.096;2024-01-30T00:38:23;20.30;85.60
33508;DHT22;25568;37.410;-122.096;2024-01-30T00:40:52;20.40;85.50
33508;DHT22;25568;37.410;-122.096;2024-01-30T00:43:22;20.40;85.10
33508;DHT22;25568;37.410;-122.096;2024-01-30T00:45:54;20.40;84.70
33508;DHT22;25568;37.410;-122.096;2024-01-30T00:48:24;20.40;85.00
33508;DHT22;25568;37.410;-122.096;2024-01-30T00:50:54;20.40;85.20
33508;DHT22;25568;37.410;-122.096;2024-01-30T00:53:23;20.40;85.20
33508;DHT22;25568;37.410;-122.096;2024-01-30T00:55:54;20.40;85.30
33508;DHT22;25568;37.410;-122.096;2024-01-30T00:58:23;20.40;85.20
33508;DHT22;25568;37.410;-122.096;2024-01-30T01:00:54;20.40;85.20
33508;DHT22;25568;37.410;-122.096;2024-01-30T01:03:24;20.40;85.10
33508;DHT22;25568;37.410;-122.096;2024-01-30T01:05:53;20.40;85.00
33508;DHT22;25568;37.410;-122.096;2024-01-30T01:08:22;20.40;85.00
33508;DHT22;25568;37.410;-122.096;2024-01-30T01:10:52;20.40;85.00
33508;DHT22;25568;37.410;-122.096;2024-01-30T01:13:21;20.40;84.90
33508;DHT22;25568;37.410;-122.096;2024-01-30T01:15:50;20.50;85.00
33508;DHT22;25568;37.410;-122.096;2024-01-30T01:18:22;20.50;84.90
33508;DHT22;25568;37.410;-122.096;2024-01-30T01:20:51;20.40;84.80
33508;DHT22;25568;37.410;-122.096;2024-01-30T01:23:22;20.50;84.80
33508;DHT22;25568;37.410;-122.096;2024-01-30T01:25:51;20.50;84.80
33508;DHT22;25568;37.410;-122.096;2024-01-30T01:28:20;20.50;85.60
33508;DHT22;25568;37.410;-122.096;2024-01-30T01:30:49;20.50;84.70
33508;DHT22;25568;37.410;-122.096;2024-01-30T01:33:21;20.50;84.70
33508;DHT22;25568;37.410;-122.096;2024-01-30T01:35:51;20.50;84.70
33508;DHT22;25568;37.410;-122.096;2024-01-30T01:38:20;20.50;84.80
33508;DHT22;25568;37.410;-122.096;2024-01-30T01:40:49;20.50;84.80
33508;DHT22;25568;37.410;-122.096;2024-01-30T01:43:20;20.50;84.60
33508;DHT22;25568;37.410;-122.096;2024-01-30T01:45:49;20.50;84.50
33508;DHT22;25568;37.410;-122.096;2024-01-30T01:48:21;20.50;84.40
33508;DHT22;25568;37.410;-122.096;2024-01-30T01:50:52;20.50;84.30
33508;DHT22;25568;37.410;-122.096;2024-01-30T01:53:21;20.50;84.60
33508;DHT22;25568;37.410;-122.096;2024-01-30T01:55:50;20.60;84.80
33508;DHT22;25568;37.410;-122.096;2024-01-30T01:58:20;20.50;84.80
33508;DHT22;25568;37.410;-122.096;2024-01-30T02:00:52;20.60;85.00
33508;DHT22;25568;37.410;-122.096;2024-01-30T02:03:25;20.50;85.10
33508;DHT22;25568;37.410;-122.096;2024-01-30T02:05:54;20.60;85.40
33508;DHT22;25568;37.410;-122.096;2024-01-30T02:08:25;20.60;85.70
33508;DHT22;25568;37.410;-122.096;2024-01-30T02:10:55;20.60;86.00
33508;DHT22;25568;37.410;-122.096;2024-01-30T02:13:25;20.60;86.30
33508;DHT22;25568;37.410;-122.096;2024-01-30T02:15:54;20.60;86.80
33508;DHT22;25568;37.410;-122.096;2024-01-30T02:18:25;20.60;87.10
33508;DHT22;25568;37.410;-122.096;2024-01-30T02:20:56;20.60;87.30
33508;DHT22;25568;37.410;-122.096;2024-01-30T02:23:31;20.60;87.60
33508;DHT22;25568;37.410;-122.096;2024-01-30T02:26:03;20.60;87.90
33508;DHT22;25568;37.410;-122.096;2024-01-30T02:28:32;20.60;88.30
33508;DHT22;25568;37.410;-122.096;2024-01-30T02:31:02;20.60;88.70
33508;DHT22;25568;37.410;-122.096;2024-01-30T02:33:31;20.60;89.20
33508;DHT22;25568;37.410;-122.096;2024-01-30T02:36:01;20.70;90.00
33508;DHT22;25568;37.410;-122.096;2024-01-30T02:38:32;20.70;90.40
33508;DHT22;25568;37.410;-122.096;2024-01-30T02:41:01;20.60;90.70
33508;DHT22;25568;37.410;-122.096;2024-01-30T02:43:31;20.70;91.10
33508;DHT22;25568;37.410;-122.096;2024-01-30T02:46:00;20.70;91.40
33508;DHT22;25568;37.410;-122.096;2024-01-30T02:48:29;20.70;91.50
33508;DHT22;25568;37.410;-122.096;2024-01-30T02:50:59;20.70;91.80
33508;DHT22;25568;37.410;-122.096;2024-01-30T02:53:28;20.70;91.90
33508;DHT22;25568;37.410;-122.096;2024-01-30T02:56:00;20.70;91.80
33508;DHT22;25568;37.410;-122.096;2024-01-30T02:58:36;20.70;91.80
33508;DHT22;25568;37.410;-122.096;2024-01-30T03:01:06;20.70;91.70
33508;DHT22;25568;37.410;-122.096;2024-01-30T03:03:35;20.70;91.60
33508;DHT22;25568;37.410;-122.096;2024-01-30T03:06:06;20.80;91.40
33508;DHT22;25568;37.410;-122.096;2024-01-30T03:08:36;20.80;91.30
33508;DHT22;25568;37.410;-122.096;2024-01-30T03:11:07;20.80;91.50
33508;DHT22;25568;37.410;-122.096;2024-01-30T03:13:36;20.80;91.00
33508;DHT22;25568;37.410;-122.096;2024-01-30T03:16:06;20.80;90.90
33508;DHT22;25568;37.410;-122.096;2024-01-30T03:18:38;20.80;90.80
33508;DHT22;25568;37.410;-122.096;2024-01-30T03:21:07;20.80;90.60
33508;DHT22;25568;37.410;-122.096;2024-01-30T03:23:36;20.80;90.50
33508;DHT22;25568;37.410;-122.096;2024-01-30T03:26:08;20.80;90.40
33508;DHT22;25568;37.410;-122.096;2024-01-30T03:28:39;20.80;90.20
33508;DHT22;25568;37.410;-122.096;2024-01-30T03:31:08;20.80;90.00
33508;DHT22;25568;37.410;-122.096;2024-01-30T03:33:40;20.80;89.90
33508;DHT22;25568;37.410;-122.096;2024-01-30T03:36:10;20.80;89.60
33508;DHT22;25568;37.410;-122.096;2024-01-30T03:38:39;20.80;89.20
33508;DHT22;25568;37.410;-122.096;2024-01-30T03:41:11;20.80;88.90
33508;DHT22;25568;37.410;-122.096;2024-01-30T03:43:41;20.80;88.70
33508;DHT22;25568;37.410;-122.096;2024-01-30T03:46:12;20.80;88.50
33508;DHT22;25568;37.410;-122.096;2024-01-30T03:48:42;20.80;88.20
33508;DHT22;25568;37.410;-122.096;2024-01-30T03:51:11;20.80;88.10
33508;DHT22;25568;37.410;-122.096;2024-01-30T03:53:42;20.80;87.80
33508;DHT22;25568;37.410;-122.096;2024-01-30T03:56:16;20.80;87.70
33508;DHT22;25568;37.410;-122.096;2024-01-30T03:58:46;20.80;87.50
33508;DHT22;25568;37.410;-122.096;2024-01-30T04:01:16;20.80;87.40
33508;DHT22;25568;37.410;-122.096;2024-01-30T04:03:45;20.80;87.20
33508;DHT22;25568;37.410;-122.096;2024-01-30T04:06:14;20.70;87.10
33508;DHT22;25568;37.410;-122.096;2024-01-30T04:08:43;20.80;87.00
33508;DHT22;25568;37.410;-122.096;2024-01-30T04:11:14;20.80;86.40
33508;DHT22;25568;37.410;-122.096;2024-01-30T04:13:43;20.80;86.90
33508;DHT22;25568;37.410;-122.096;2024-01-30T04:16:20;20.80;86.90
33508;DHT22;25568;37.410;-122.096;2024-01-30T04:18:49;20.80;86.70
33508;DHT22;25568;37.410;-122.096;2024-01-30T04:21:20;20.80;87.40
33508;DHT22;25568;37.410;-122.096;2024-01-30T04:23:51;20.80;86.50
33508;DHT22;25568;37.410;-122.096;2024-01-30T04:26:22;20.80;86.40
33508;DHT22;25568;37.410;-122.096;2024-01-30T04:28:53;20.70;86.10
33508;DHT22;25568;37.410;-122.096;2024-01-30T04:31:22;20.70;86.10
33508;DHT22;25568;37.410;-122.096;2024-01-30T04:33:52;20.80;86.00
33508;DHT22;25568;37.410;-122.096;2024-01-30T04:36:22;20.80;86.00
33508;DHT22;25568;37.410;-122.096;2024-01-30T04:38:51;20.70;85.80
33508;DHT22;25568;37.410;-122.096;2024-01-30T04:41:22;20.70;85.80
33508;DHT22;25568;37.410;-122.096;2024-01-30T04:43:53;20.70;85.70
33508;DHT22;25568;37.410;-122.096;2024-01-30T04:46:22;20.70;85.70
33508;DHT22;25568;37.410;-122.096;2024-01-30T04:48:51;20.70;85.70
33508;DHT22;25568;37.410;-122.096;2024-01-30T04:51:21;20.70;85.70
33508;DHT22;25568;37.410;-122.096;2024-01-30T04:53:50;20.70;85.60
33508;DHT22;25568;37.410;-122.096;2024-01-30T04:56:20;20.70;85.60
33508;DHT22;25568;37.410;-122.096;2024-01-30T04:58:51;20.70;85.60
33508;DHT22;25568;37.410;-122.096;2024-01-30T05:01:20;20.70;85.40
33508;DHT22;25568;37.410;-122.096;2024-01-30T05:03:49;20.70;85.40
33508;DHT22;25568;37.410;-122.096;2024-01-30T05:06:25;20.70;85.40
33508;DHT22;25568;37.410;-122.096;2024-01-30T05:08:57;20.70;85.50
33508;DHT22;25568;37.410;-122.096;2024-01-30T05:11:26;20.70;85.50
33508;DHT22;25568;37.410;-122.096;2024-01-30T05:13:57;20.70;85.50
33508;DHT22;25568;37.410;-122.096;2024-01-30T05:16:26;20.70;85.50
33508;DHT22;25568;37.410;-122.096;2024-01-30T05:18:55;20.70;85.40
33508;DHT22;25568;37.410;-122.096;2024-01-30T05:21:25;20.70;85.30
33508;DHT22;25568;37.410;-122.096;2024-01-30T05:23:54;20.60;85.20
33508;DHT22;25568;37.410;-122.096;2024-01-30T05:26:23;20.70;85.20
33508;DHT22;25568;37.410;-122.096;2024-01-30T05:28:53;20.60;85.00
33508;DHT22;25568;37.410;-122.096;2024-01-30T05:31:24;20.60;84.80
33508;DHT22;25568;37.410;-122.096;2024-01-30T05:33:54;20.60;84.70
33508;DHT22;25568;37.410;-122.096;2024-01-30T05:36:24;20.60;84.60
33508;DHT22;25568;37.410;-122.096;2024-01-30T05:38:53;20.60;84.50
33508;DHT22;25568;37.410;-122.096;2024-01-30T05:41:23;20.60;84.50
33508;DHT22;25568;37.410;-122.096;2024-01-30T05:43:52;20.60;84.30
33508;DHT22;25568;37.410;-122.096;2024-01-30T05:46:21;20.60;84.30
33508;DHT22;25568;37.410;-122.096;2024-01-30T05:48:52;20.60;84.30
33508;DHT22;25568;37.410;-122.096;2024-01-30T05:51:21;20.60;84.20
33508;DHT22;25568;37.410;-122.096;2024-01-30T05:53:50;20.60;84.10
33508;DHT22;25568;37.410;-122.096;2024-01-30T05:56:20;20.50;84.10
33508;DHT22;25568;37.410;-122.096;2024-01-30T05:58:49;20.50;84.10
33508;DHT22;25568;37.410;-122.096;2024-01-30T06:01:18;20.50;84.00
33508;DHT22;25568;37.410;-122.096;2024-01-30T06:03:47;20.50;84.00
33508;DHT22;25568;37.410;-122.096;2024-01-30T06:06:20;20.50;84.00
33508;DHT22;25568;37.410;-122.096;2024-01-30T06:08:49;20.50;84.00
33508;DHT22;25568;37.410;-122.096;2024-01-30T06:11:19;20.50;84.10
33508;DHT22;25568;37.410;-122.096;2024-01-30T06:13:48;20.50;84.20
33508;DHT22;25568;37.410;-122.096;2024-01-30T06:16:17;20.50;84.70
33508;DHT22;25568;37.410;-122.096;2024-01-30T06:18:48;20.50;85.10
33508;DHT22;25568;37.410;-122.096;2024-01-30T06:21:19;20.50;85.30
33508;DHT22;25568;37.410;-122.096;2024-01-30T06:23:49;20.50;85.40
33508;DHT22;25568;37.410;-122.096;2024-01-30T06:26:18;20.50;85.20
33508;DHT22;25568;37.410;-122.096;2024-01-30T06:28:47;20.50;85.10
33508;DHT22;25568;37.410;-122.096;2024-01-30T06:31:17;20.50;85.20
33508;DHT22;25568;37.410;-122.096;2024-01-30T06:33:47;20.40;85.10
33508;DHT22;25568;37.410;-122.096;2024-01-30T06:36:19;20.40;85.10
33508;DHT22;25568;37.410;-122.096;2024-01-30T06:38:48;20.40;85.30
33508;DHT22;25568;37.410;-122.096;2024-01-30T06:41:17;20.50;85.60
33508;DHT22;25568;37.410;-122.096;2024-01-30T06:43:47;20.50;86.00
33508;DHT22;25568;37.410;-122.096;2024-01-30T06:46:16;20.40;86.20
33508;DHT22;25568;37.410;-122.096;2024-01-30T06:48:46;20.40;86.60
33508;DHT22;25568;37.410;-122.096;2024-01-30T06:51:15;20.40;86.90
33508;DHT22;25568;37.410;-122.096;2024-01-30T06:53:47;20.40;87.10
33508;DHT22;25568;37.410;-122.096;2024-01-30T06:56:17;20.40;87.40
33508;DHT22;25568;37.410;-122.096;2024-01-30T06:58:47;20.40;87.60
33508;DHT22;25568;37.410;-122.096;2024-01-30T07:01:17;20.40;87.80
33508;DHT22;25568;37.410;-122.096;2024-01-30T07:03:47;20.40;87.90
33508;DHT22;25568;37.410;-122.096;2024-01-30T07:06:20;20.40;88.10
33508;DHT22;25568;37.410;-122.096;2024-01-30T07:08:51;20.40;88.20
33508;DHT22;25568;37.410;-122.096;2024-01-30T07:11:21;20.40;88.60
33508;DHT22;25568;37.410;-122.096;2024-01-30T07:13:51;20.40;88.60
33508;DHT22;25568;37.410;-122.096;2024-01-30T07:16:20;20.30;88.70
33508;DHT22;25568;37.410;-122.096;2024-01-30T07:18:49;20.30;88.70
33508;DHT22;25568;37.410;-122.096;2024-01-30T07:21:19;20.30;88.90
33508;DHT22;25568;37.410;-122.096;2024-01-30T07:23:51;20.30;89.70
33508;DHT22;25568;37.410;-122.096;2024-01-30T07:26:20;20.30;89.00
33508;DHT22;25568;37.410;-122.096;2024-01-30T07:28:50;20.30;89.20
33508;DHT22;25568;37.410;-122.096;2024-01-30T07:31:22;20.30;89.30
33508;DHT22;25568;37.410;-122.096;2024-01-30T07:33:51;20.30;89.40
33508;DHT22;25568;37.410;-122.096;2024-01-30T07:36:21;20.30;89.50
33508;DHT22;25568;37.410;-122.096;2024-01-30T07:38:53;20.30;89.60
33508;DHT22;25568;37.410;-122.096;2024-01-30T07:41:26;20.30;89.70
33508;DHT22;25568;37.410;-122.096;2024-01-30T07:43:56;20.30;90.00
33508;DHT22;25568;37.410;-122.096;2024-01-30T07:46:26;20.30;90.50
33508;DHT22;25568;37.410;-122.096;2024-01-30T07:48:55;20.30;90.10
33508;DHT22;25568;37.410;-122.096;2024-01-30T07:51:25;20.30;90.10
33508;DHT22;25568;37.410;-122.096;2024-01-30T07:53:56;20.30;90.10
33508;DHT22;25568;37.410;-122.096;2024-01-30T07:56:27;20.20;90.10
33508;DHT22;25568;37.410;-122.096;2024-01-30T07:58:57;20.30;90.10
33508;DHT22;25568;37.410;-122.096;2024-01-30T08:01:27;20.30;90.20
33508;DHT22;25568;37.410;-122.096;2024-01-30T08:03:57;20.30;90.20
33508;DHT22;25568;37.410;-122.096;2024-01-30T08:06:26;20.20;90.20
33508;DHT22;25568;37.410;-122.096;2024-01-30T08:08:58;20.20;90.20
33508;DHT22;25568;37.410;-122.096;2024-01-30T08:11:27;20.20;90.20
33508;DHT22;25568;37.410;-122.096;2024-01-30T08:13:58;20.20;90.20
33508;DHT22;25568;37.410;-122.096;2024-01-30T08:16:27;20.20;90.30
33508;DHT22;25568;37.410;-122.096;2024-01-30T08:19:01;20.20;90.30
33508;DHT22;25568;37.410;-122.096;2024-01-30T08:21:31;20.20;90.30
33508;DHT22;25568;37.410;-122.096;2024-01-30T08:24:06;20.20;90.40
33508;DHT22;25568;37.410;-122.096;2024-01-30T08:26:35;20.20;90.40
33508;DHT22;25568;37.410;-122.096;2024-01-30T08:29:05;20.20;90.40
33508;DHT22;25568;37.410;-122.096;2024-01-30T08:31:38;20.20;90.40
33508;DHT22;25568;37.410;-122.096;2024-01-30T08:34:07;20.10;90.40
33508;DHT22;25568;37.410;-122.096;2024-01-30T08:36:37;20.10;90.50
33508;DHT22;25568;37.410;-122.096;2024-01-30T08:39:08;20.10;90.50
33508;DHT22;25568;37.410;-122.096;2024-01-30T08:41:40;20.10;90.60
33508;DHT22;25568;37.410;-122.096;2024-01-30T08:44:10;20.10;90.70
33508;DHT22;25568;37.410;-122.096;2024-01-30T08:46:40;20.10;90.70
33508;DHT22;25568;37.410;-122.096;2024-01-30T08:49:09;20.10;90.80
33508;DHT22;25568;37.410;-122.096;2024-01-30T08:51:40;20.10;90.90
33508;DHT22;25568;37.410;-122.096;2024-01-30T08:54:11;20.10;90.90
33508;DHT22;25568;37.410;-122.096;2024-01-30T08:56:41;20.10;91.00
33508;DHT22;25568;37.410;-122.096;2024-01-30T08:59:10;20.10;91.20
33508;DHT22;25568;37.410;-122.096;2024-01-30T09:01:39;20.10;91.20
33508;DHT22;25568;37.410;-122.096;2024-01-30T09:04:09;20.10;91.30
33508;DHT22;25568;37.410;-122.096;2024-01-30T09:06:39;20.10;91.30
33508;DHT22;25568;37.410;-122.096;2024-01-30T09:09:11;20.10;91.40
33508;DHT22;25568;37.410;-122.096;2024-01-30T09:11:41;20.10;91.40
33508;DHT22;25568;37.410;-122.096;2024-01-30T09:14:11;20.10;91.50
33508;DHT22;25568;37.410;-122.096;2024-01-30T09:16:42;20.10;91.50
33508;DHT22;25568;37.410;-122.096;2024-01-30T09:19:11;20.10;91.80
33508;DHT22;25568;37.410;-122.096;2024-01-30T09:21:42;20.10;91.50
33508;DHT22;25568;37.410;-122.096;2024-01-30T09:24:13;20.00;91.50
33508;DHT22;25568;37.410;-122.096;2024-01-30T09:26:45;20.00;91.50
33508;DHT22;25568;37.410;-122.096;2024-01-30T09:29:15;20.00;91.50
33508;DHT22;25568;37.410;-122.096;2024-01-30T09:31:45;20.00;91.60
33508;DHT22;25568;37.410;-122.096;2024-01-30T09:34:16;20.00;91.70
33508;DHT22;25568;37.410;-122.096;2024-01-30T09:36:46;20.00;91.70
33508;DHT22;25568;37.410;-122.096;2024-01-30T09:39:17;20.00;91.70
33508;DHT22;25568;37.410;-122.096;2024-01-30T09:41:49;20.00;91.70
33508;DHT22;25568;37.410;-122.096;2024-01-30T09:44:23;20.00;91.70
33508;DHT22;25568;37.410;-122.096;2024-01-30T09:46:53;20.00;91.80
33508;DHT22;25568;37.410;-122.096;2024-01-30T09:49:25;20.00;91.90
33508;DHT22;25568;37.410;-122.096;2024-01-30T09:51:55;20.00;91.90
33508;DHT22;25568;37.410;-122.096;2024-01-30T09:54:26;20.00;92.00
33508;DHT22;25568;37.410;-122.096;2024-01-30T09:56:57;20.00;92.10
33508;DHT22;25568;37.410;-122.096;2024-01-30T09:59:26;20.00;92.20
33508;DHT22;25568;37.410;-122.096;2024-01-30T10:01:56;20.00;92.20
33508;DHT22;25568;37.410;-122.096;2024-01-30T10:04:25;20.00;92.30
33508;DHT22;25568;37.410;-122.096;2024-01-30T10:06:59;20.00;92.40
33508;DHT22;25568;37.410;-122.096;2024-01-30T10:09:32;20.00;92.40
33508;DHT22;25568;37.410;-122.096;2024-01-30T10:12:02;19.90;92.50
33508;DHT22;25568;37.410;-122.096;2024-01-30T10:14:32;20.00;92.50
33508;DHT22;25568;37.410;-122.096;2024-01-30T10:17:02;19.90;92.50
33508;DHT22;25568;37.410;-122.096;2024-01-30T10:19:33;19.90;92.50
33508;DHT22;25568;37.410;-122.096;2024-01-30T10:22:04;19.90;92.60
33508;DHT22;25568;37.410;-122.096;2024-01-30T10:24:36;19.90;92.70
33508;DHT22;25568;37.410;-122.096;2024-01-30T10:27:08;19.90;93.00
33508;DHT22;25568;37.410;-122.096;2024-01-30T10:29:38;19.90;92.70
33508;DHT22;25568;37.410;-122.096;2024-01-30T10:32:08;19.90;92.80
33508;DHT22;25568;37.410;-122.096;2024-01-30T10:34:37;19.90;92.70
33508;DHT22;25568;37.410;-122.096;2024-01-30T10:37:08;19.90;92.80
33508;DHT22;25568;37.410;-122.096;2024-01-30T10:39:44;19.90;92.80
33508;DHT22;25568;37.410;-122.096;2024-01-30T10:42:15;19.90;92.80
33508;DHT22;25568;37.410;-122.096;2024-01-30T10:44:52;19.90;92.80
33508;DHT22;25568;37.410;-122.096;2024-01-30T10:47:27;19.90;92.70
33508;DHT22;25568;37.410;-122.096;2024-01-30T10:49:57;19.90;92.70
33508;DHT22;25568;37.410;-122.096;2024-01-30T10:52:27;19.90;92.70
33508;DHT22;25568;37.410;-122.096;2024-01-30T10:55:01;19.90;92.70
33508;DHT22;25568;37.410;-122.096;2024-01-30T10:57:34;19.90;92.70
33508;DHT22;25568;37.410;-122.096;2024-01-30T11:00:06;19.90;92.70
33508;DHT22;25568;37.410;-122.096;2024-01-30T11:02:38;19.90;92.80
33508;DHT22;25568;37.410;-122.096;2024-01-30T11:05:09;19.90;92.90
33508;DHT22;25568;37.410;-122.096;2024-01-30T11:07:39;19.90;93.00
33508;DHT22;25568;37.410;-122.096;2024-01-30T11:10:12;19.80;93.00
33508;DHT22;25568;37.410;-122.096;2024-01-30T11:12:42;19.80;93.00
33508;DHT22;25568;37.410;-122.096;2024-01-30T11:15:14;19.80;93.00
33508;DHT22;25568;37.410;-122.096;2024-01-30T11:17:44;19.80;93.00
33508;DHT22;25568;37.410;-122.096;2024-01-30T11:20:15;19.80;93.00
33508;DHT22;25568;37.410;-122.096;2024-01-30T11:22:47;19.80;93.00
33508;DHT22;25568;37.410;-122.096;2024-01-30T11:25:22;19.80;93.10
33508;DHT22;25568;37.410;-122.096;2024-01-30T11:27:54;19.80;93.10
33508;DHT22;25568;37.410;-122.096;2024-01-30T11:30:24;19.80;93.10
33508;DHT22;25568;37.410;-122.096;2024-01-30T11:33:01;19.80;93.10
33508;DHT22;25568;37.410;-122.096;2024-01-30T11:35:34;19.80;93.10
33508;DHT22;25568;37.410;-122.096;2024-01-30T11:38:04;19.80;93.20
33508;DHT22;25568;37.410;-122.096;2024-01-30T11:40:38;19.80;93.10
33508;DHT22;25568;37.410;-122.096;2024-01-30T11:43:07;19.80;93.20
33508;DHT22;25568;37.410;-122.096;2024-01-30T11:45:37;19.80;93.20
33508;DHT22;25568;37.410;-122.096;2024-01-30T11:48:08;19.80;93.20
33508;DHT22;25568;37.410;-122.096;2024-01-30T11:50:38;19.80;93.20
33508;DHT22;25568;37.410;-122.096;2024-01-30T11:53:08;19.80;93.30
33508;DHT22;25568;37.410;-122.096;2024-01-30T11:55:39;19.80;93.40
33508;DHT22;25568;37.410;-122.096;2024-01-30T11:58:09;19.80;93.30
33508;DHT22;25568;37.410;-122.096;2024-01-30T12:00:38;19.70;93.30
33508;DHT22;25568;37.410;-122.096;2024-01-30T12:03:08;19.80;93.40
33508;DHT22;25568;37.410;-122.096;2024-01-30T12:05:40;19.80;93.40
33508;DHT22;25568;37.410;-122.096;2024-01-30T12:08:15;19.70;93.30
33508;DHT22;25568;37.410;-122.096;2024-01-30T12:10:48;19.70;93.30
33508;DHT22;25568;37.410;-122.096;2024-01-30T12:13:25;19.70;93.30
33508;DHT22;25568;37.410;-122.096;2024-01-30T12:15:55;19.70;93.40
33508;DHT22;25568;37.410;-122.096;2024-01-30T12:18:24;19.70;93.40
33508;DHT22;25568;37.410;-122.096;2024-01-30T12:21:02;19.80;93.40
33508;DHT22;25568;37.410;-122.096;2024-01-30T12:23:32;19.70;93.40
33508;DHT22;25568;37.410;-122.096;2024-01-30T12:26:03;19.70;93.40
33508;DHT22;25568;37.410;-122.096;2024-01-30T12:28:33;19.70;93.40
33508;DHT22;25568;37.410;-122.096;2024-01-30T12:31:03;19.80;93.50
33508;DHT22;25568;37.410;-122.096;2024-01-30T12:33:36;19.70;93.50
33508;DHT22;25568;37.410;-122.096;2024-01-30T12:36:06;19.70;93.40
33508;DHT22;25568;37.410;-122.096;2024-01-30T12:38:36;19.70;93.40
33508;DHT22;25568;37.410;-122.096;2024-01-30T12:41:10;19.70;93.40
33508;DHT22;25568;37.410;-122.096;2024-01-30T12:43:43;19.70;93.40
33508;DHT22;25568;37.410;-122.096;2024-01-30T12:46:16;19.70;93.40
33508;DHT22;25568;37.410;-122.096;2024-01-30T12:48:45;19.70;93.40
33508;DHT22;25568;37.410;-122.096;2024-01-30T12:51:15;19.70;93.40
33508;DHT22;25568;37.410;-122.096;2024-01-30T12:53:45;19.70;93.40
33508;DHT22;25568;37.410;-122.096;2024-01-30T12:56:19;19.70;93.40
33508;DHT22;25568;37.410;-122.096;2024-01-30T12:58:48;19.70;93.40
33508;DHT22;25568;37.410;-122.096;2024-01-30T13:01:21;19.70;93.40
33508;DHT22;25568;37.410;-122.096;2024-01-30T13:03:52;19.70;93.40
33508;DHT22;25568;37.410;-122.096;2024-01-30T13:06:21;19.70;93.40
33508;DHT22;25568;37.410;-122.096;2024-01-30T13:08:50;19.70;93.30
33508;DHT22;25568;37.410;-122.096;2024-01-30T13:11:21;19.60;93.30
33508;DHT22;25568;37.410;-122.096;2024-01-30T13:13:52;19.60;93.30
33508;DHT22;25568;37.410;-122.096;2024-01-30T13:16:21;19.60;93.30
33508;DHT22;25568;37.410;-122.096;2024-01-30T13:18:51;19.60;93.30
33508;DHT22;25568;37.410;-122.096;2024-01-30T13:21:22;19.60;93.40
33508;DHT22;25568;37.410;-122.096;2024-01-30T13:23:52;19.60;93.30
33508;DHT22;25568;37.410;-122.096;2024-01-30T13:26:23;19.60;93.30
33508;DHT22;25568;37.410;-122.096;2024-01-30T13:28:54;19.70;93.40
33508;DHT22;25568;37.410;-122.096;2024-01-30T13:31:23;19.60;93.40
33508;DHT22;25568;37.410;-122.096;2024-01-30T13:33:54;19.60;93.30
33508;DHT22;25568;37.410;-122.096;2024-01-30T13:36:24;19.60;93.30
33508;DHT22;25568;37.410;-122.096;2024-01-30T13:38:53;19.60;93.30
33508;DHT22;25568;37.410;-122.096;2024-01-30T13:41:25;19.60;93.30
33508;DHT22;25568;37.410;-122.096;2024-01-30T13:43:56;19.60;93.30
33508;DHT22;25568;37.410;-122.096;2024-01-30T13:46:25;19.60;93.30
33508;DHT22;25568;37.410;-122.096;2024-01-30T13:48:55;19.60;93.30
33508;DHT22;25568;37.410;-122.096;2024-01-30T13:51:24;19.60;93.30
33508;DHT22;25568;37.410;-122.096;2024-01-30T13:53:54;19.60;93.30
33508;DHT22;25568;37.410;-122.096;2024-01-30T13:56:27;19.50;93.20
33508;DHT22;25568;37.410;-122.096;2024-01-30T13:58:58;19.60;93.20
33508;DHT22;25568;37.410;-122.096;2024-01-30T14:01:32;19.50;93.20
33508;DHT22;25568;37.410;-122.096;2024-01-30T14:04:01;19.50;93.20
33508;DHT22;25568;37.410;-122.096;2024-01-30T14:06:30;19.50;93.30
33508;DHT22;25568;37.410;-122.096;2024-01-30T14:09:00;19.50;93.20
33508;DHT22;25568;37.410;-122.096;2024-01-30T14:11:33;19.50;93.20
33508;DHT22;25568;37.410;-122.096;2024-01-30T14:14:02;19.50;93.30
33508;DHT22;25568;37.410;-122.096;2024-01-30T14:16:32;19.50;93.30
33508;DHT22;25568;37.410;-122.096;2024-01-30T14:19:02;19.50;93.30
33508;DHT22;25568;37.410;-122.096;2024-01-30T14:21:31;19.50;93.30
33508;DHT22;25568;37.410;-122.096;2024-01-30T14:24:02;19.50;93.30
33508;DHT22;25568;37.410;-122.096;2024-01-30T14:26:34;19.50;93.40
33508;DHT22;25568;37.410;-122.096;2024-01-30T14:29:03;19.50;93.40
33508;DHT22;25568;37.410;-122.096;2024-01-30T14:31:34;19.50;93.40
33508;DHT22;25568;37.410;-122.096;2024-01-30T14:34:05;19.50;93.40
33508;DHT22;25568;37.410;-122.096;2024-01-30T14:36:35;19.50;93.30
33508;DHT22;25568;37.410;-122.096;2024-01-30T14:39:04;19.50;93.30
33508;DHT22;25568;37.410;-122.096;2024-01-30T14:41:36;19.50;93.30
33508;DHT22;25568;37.410;-122.096;2024-01-30T14:44:05;19.50;93.30
33508;DHT22;25568;37.410;-122.096;2024-01-30T14:46:34;19.50;93.20
33508;DHT22;25568;37.410;-122.096;2024-01-30T14:49:07;19.50;93.20
33508;DHT22;25568;37.410;-122.096;2024-01-30T14:51:36;19.50;93.20
33508;DHT22;25568;37.410;-122.096;2024-01-30T14:54:05;19.40;93.20
33508;DHT22;25568;37.410;-122.096;2024-01-30T14:56:37;19.40;93.20
33508;DHT22;25568;37.410;-122.096;2024-01-30T14:59:08;19.50;93.50
33508;DHT22;25568;37.410;-122.096;2024-01-30T15:01:38;19.50;93.60
33508;DHT22;25568;37.410;-122.096;2024-01-30T15:04:08;19.40;93.60
33508;DHT22;25568;37.410;-122.096;2024-01-30T15:06:37;19.40;93.50